sensor_id;sensor_type;location;lat;lon;timestamp;temperature;humidity
15930;DHT22;8064;51.142;4.780;2023-11-21T00:01:37;9.60;99.90
15930;DHT22;8064;51.142;4.780;2023-11-21T00:04:03;9.60;99.90
15930;DHT22;8064;51.142;4.780;2023-11-21T00:06:29;9.60;99.90
15930;DHT22;8064;51.142;4.780;2023-11-21T00:08:56;9.60;99.90
15930;DHT22;8064;51.142;4.780;2023-11-21T00:11:22;9.60;99.90
15930;DHT22;8064;51.142;4.780;2023-11-21T00:13:47;9.60;99.90
15930;DHT22;8064;51.142;4.780;2023-11-21T00:16:13;9.60;99.90
15930;DHT22;8064;51.142;4.780;2023-11-21T00:18:39;9.60;99.90
15930;DHT22;8064;51.142;4.780;2023-11-21T00:21:05;9.60;99.90
15930;DHT22;8064;51.142;4.780;2023-11-21T00:23:31;9.70;99.90
15930;DHT22;8064;51.142;4.780;2023-11-21T00:25:56;9.60;99.90
15930;DHT22;8064;51.142;4.780;2023-11-21T00:28:22;9.60;99.90
15930;DHT22;8064;51.142;4.780;2023-11-21T00:30:48;9.60;99.90
15930;DHT22;8064;51.142;4.780;2023-11-21T00:33:14;9.60;99.90
15930;DHT22;8064;51.142;4.780;2023-11-21T00:35:39;9.60;99.90
15930;DHT22;8064;51.142;4.780;2023-11-21T00:38:05;9.60;99.90
15930;DHT22;8064;51.142;4.780;2023-11-21T00:40:31;9.50;99.90
15930;DHT22;8064;51.142;4.780;2023-11-21T00:42:56;9.50;99.90
15930;DHT22;8064;51.142;4.780;2023-11-21T00:45:22;9.50;99.90
15930;DHT22;8064;51.142;4.780;2023-11-21T00:47:48;9.50;99.90
15930;DHT22;8064;51.142;4.780;2023-11-21T00:50:14;9.50;99.90
15930;DHT22;8064;51.142;4.780;2023-11-21T00:52:39;9.50;99.90
15930;DHT22;8064;51.142;4.780;2023-11-21T00:55:06;9.50;99.90
15930;DHT22;8064;51.142;4.780;2023-11-21T00:57:33;9.50;99.90
15930;DHT22;8064;51.142;4.780;2023-11-21T00:59:59;9.50;99.90
15930;DHT22;8064;51.142;4.780;2023-11-21T01:02:26;9.50;99.90
15930;DHT22;8064;51.142;4.780;2023-11-21T01:04:51;9.60;99.90
15930;DHT22;8064;51.142;4.780;2023-11-21T01:07:17;9.60;99.90
15930;DHT22;8064;51.142;4.780;2023-11-21T01:09:46;9.60;99.90
15930;DHT22;8064;51.142;4.780;2023-11-21T01:12:12;9.60;99.90
15930;DHT22;8064;51.142;4.780;2023-11-21T01:14:37;9.60;99.90
15930;DHT22;8064;51.142;4.780;2023-11-21T01:17:03;9.60;99.90
15930;DHT22;8064;51.142;4.780;2023-11-21T01:19:30;9.60;99.90
15930;DHT22;8064;51.142;4.780;2023-11-21T01:21:56;9.50;99.90
15930;DHT22;8064;51.142;4.780;2023-11-21T01:24:23;9.50;99.90
15930;DHT22;8064;51.142;4.780;2023-11-21T01:26:50;9.50;99.90
15930;DHT22;8064;51.142;4.780;2023-11-21T01:29:16;9.50;99.90
15930;DHT22;8064;51.142;4.780;2023-11-21T01:31:41;9.50;99.90
15930;DHT22;8064;51.142;4.780;2023-11-21T01:34:07;9.50;99.90
15930;DHT22;8064;51.142;4.780;2023-11-21T01:36:33;9.50;99.90
15930;DHT22;8064;51.142;4.780;2023-11-21T01:38:59;9.50;99.90
15930;DHT22;8064;51.142;4.780;2023-11-21T01:41:26;9.50;99.90
15930;DHT22;8064;51.142;4.780;2023-11-21T01:43:52;9.50;99.90
15930;DHT22;8064;51.142;4.780;2023-11-21T01:46:19;9.50;99.90
15930;DHT22;8064;51.142;4.780;2023-11-21T01:48:46;9.50;99.90
15930;DHT22;8064;51.142;4.780;2023-11-21T01:51:13;9.40;99.90
15930;DHT22;8064;51.142;4.780;2023-11-21T01:53:39;9.40;99.90
15930;DHT22;8064;51.142;4.780;2023-11-21T01:56:06;9.50;99.90
15930;DHT22;8064;51.142;4.780;2023-11-21T01:58:33;9.50;99.90
15930;DHT22;8064;51.142;4.780;2023-11-21T02:00:59;9.50;99.90
15930;DHT22;8064;51.142;4.780;2023-11-21T02:03:25;9.50;99.90
15930;DHT22;8064;51.142;4.780;2023-11-21T02:05:52;9.50;99.90
15930;DHT22;8064;51.142;4.780;2023-11-21T02:08:19;9.50;99.90
15930;DHT22;8064;51.142;4.780;2023-11-21T02:10:45;9.40;99.90
15930;DHT22;8064;51.142;4.780;2023-11-21T02:13:13;9.40;99.90
15930;DHT22;8064;51.142;4.780;2023-11-21T02:15:39;9.40;99.90
15930;DHT22;8064;51.142;4.780;2023-11-21T02:18:05;9.40;99.90
15930;DHT22;8064;51.142;4.780;2023-11-21T02:20:32;9.50;99.90
15930;DHT22;8064;51.142;4.780;2023-11-21T02:23:02;9.50;99.90
15930;DHT22;8064;51.142;4.780;2023-11-21T02:25:29;9.50;99.90
15930;DHT22;8064;51.142;4.780;2023-11-21T02:27:56;9.50;99.90
15930;DHT22;8064;51.142;4.780;2023-11-21T02:30:22;9.50;99.90
15930;DHT22;8064;51.142;4.780;2023-11-21T02:32:50;9.60;99.90
15930;DHT22;8064;51.142;4.780;2023-11-21T02:35:19;9.60;99.90
15930;DHT22;8064;51.142;4.780;2023-11-21T02:37:47;9.60;99.90
15930;DHT22;8064;51.142;4.780;2023-11-21T02:40:13;9.60;99.90
15930;DHT22;8064;51.142;4.780;2023-11-21T02:42:43;9.60;99.90
15930;DHT22;8064;51.142;4.780;2023-11-21T02:45:09;9.60;99.90
15930;DHT22;8064;51.142;4.780;2023-11-21T02:47:38;9.60;99.90
15930;DHT22;8064;51.142;4.780;2023-11-21T02:50:05;9.60;99.90
15930;DHT22;8064;51.142;4.780;2023-11-21T02:52:33;9.70;99.90
15930;DHT22;8064;51.142;4.780;2023-11-21T02:54:59;9.70;99.90
15930;DHT22;8064;51.142;4.780;2023-11-21T02:57:25;9.70;99.90
15930;DHT22;8064;51.142;4.780;2023-11-21T02:59:50;9.60;99.90
15930;DHT22;8064;51.142;4.780;2023-11-21T03:02:16;9.70;99.90
15930;DHT22;8064;51.142;4.780;2023-11-21T03:04:42;9.70;99.90
15930;DHT22;8064;51.142;4.780;2023-11-21T03:07:09;9.70;99.90
15930;DHT22;8064;51.142;4.780;2023-11-21T03:09:35;9.70;99.90
15930;DHT22;8064;51.142;4.780;2023-11-21T03:12:01;9.70;99.90
15930;DHT22;8064;51.142;4.780;2023-11-21T03:14:27;9.70;99.90
15930;DHT22;8064;51.142;4.780;2023-11-21T03:16:53;9.70;99.90
15930;DHT22;8064;51.142;4.780;2023-11-21T03:19:18;9.70;99.90
15930;DHT22;8064;51.142;4.780;2023-11-21T03:21:44;9.70;99.90
15930;DHT22;8064;51.142;4.780;2023-11-21T03:24:10;9.70;99.90
15930;DHT22;8064;51.142;4.780;2023-11-21T03:26:36;9.70;99.90
15930;DHT22;8064;51.142;4.780;2023-11-21T03:29:02;9.70;99.90
15930;DHT22;8064;51.142;4.780;2023-11-21T03:31:28;9.70;99.90
15930;DHT22;8064;51.142;4.780;2023-11-21T03:33:54;9.80;99.90
15930;DHT22;8064;51.142;4.780;2023-11-21T03:36:20;9.80;99.90
15930;DHT22;8064;51.142;4.780;2023-11-21T03:38:47;9.80;99.90
15930;DHT22;8064;51.142;4.780;2023-11-21T03:41:13;9.80;99.90
15930;DHT22;8064;51.142;4.780;2023-11-21T03:43:40;9.80;99.90
15930;DHT22;8064;51.142;4.780;2023-11-21T03:46:06;9.80;99.90
15930;DHT22;8064;51.142;4.780;2023-11-21T03:48:32;9.80;99.90
15930;DHT22;8064;51.142;4.780;2023-11-21T03:50:58;9.80;99.90
15930;DHT22;8064;51.142;4.780;2023-11-21T03:53:24;9.80;99.90
15930;DHT22;8064;51.142;4.780;2023-11-21T03:55:50;9.80;99.90
15930;DHT22;8064;51.142;4.780;2023-11-21T03:58:15;9.80;99.90
15930;DHT22;8064;51.142;4.780;2023-11-21T04:00:41;9.80;99.90
15930;DHT22;8064;51.142;4.780;2023-11-21T04:03:07;9.80;99.90
15930;DHT22;8064;51.142;4.780;2023-11-21T04:05:33;9.80;99.90
15930;DHT22;8064;51.142;4.780;2023-11-21T04:07:58;9.80;99.90
15930;DHT22;8064;51.142;4.780;2023-11-21T04:10:24;9.90;99.90
15930;DHT22;8064;51.142;4.780;2023-11-21T04:12:50;9.90;99.90
15930;DHT22;8064;51.142;4.780;2023-11-21T04:15:15;9.90;99.90
15930;DHT22;8064;51.142;4.780;2023-11-21T04:17:42;9.90;99.90
15930;DHT22;8064;51.142;4.780;2023-11-21T04:20:09;9.90;99.90
15930;DHT22;8064;51.142;4.780;2023-11-21T04:22:42;9.90;99.90
15930;DHT22;8064;51.142;4.780;2023-11-21T04:25:15;9.90;99.90
15930;DHT22;8064;51.142;4.780;2023-11-21T04:27:41;9.90;99.90
15930;DHT22;8064;51.142;4.780;2023-11-21T04:30:10;9.90;99.90
15930;DHT22;8064;51.142;4.780;2023-11-21T04:32:36;10.00;99.90
15930;DHT22;8064;51.142;4.780;2023-11-21T04:35:02;10.00;99.90
15930;DHT22;8064;51.142;4.780;2023-11-21T04:37:29;10.00;99.90
15930;DHT22;8064;51.142;4.780;2023-11-21T04:39:55;10.00;99.90
15930;DHT22;8064;51.142;4.780;2023-11-21T04:42:21;10.00;99.90
15930;DHT22;8064;51.142;4.780;2023-11-21T04:44:47;10.00;99.90
15930;DHT22;8064;51.142;4.780;2023-11-21T04:47:13;10.00;99.90
15930;DHT22;8064;51.142;4.780;2023-11-21T04:49:42;10.00;99.90
15930;DHT22;8064;51.142;4.780;2023-11-21T04:52:07;10.00;99.90
15930;DHT22;8064;51.142;4.780;2023-11-21T04:54:35;10.00;99.90
15930;DHT22;8064;51.142;4.780;2023-11-21T04:57:01;10.10;99.90
15930;DHT22;8064;51.142;4.780;2023-11-21T04:59:26;10.10;99.90
15930;DHT22;8064;51.142;4.780;2023-11-21T05:01:53;10.10;99.90
15930;DHT22;8064;51.142;4.780;2023-11-21T05:04:19;10.10;99.90
15930;DHT22;8064;51.142;4.780;2023-11-21T05:06:47;10.10;99.90
15930;DHT22;8064;51.142;4.780;2023-11-21T05:09:13;10.10;99.90
15930;DHT22;8064;51.142;4.780;2023-11-21T05:11:39;10.20;99.90
15930;DHT22;8064;51.142;4.780;2023-11-21T05:14:06;10.10;99.90
15930;DHT22;8064;51.142;4.780;2023-11-21T05:16:32;10.10;99.90
15930;DHT22;8064;51.142;4.780;2023-11-21T05:18:59;10.10;99.90
15930;DHT22;8064;51.142;4.780;2023-11-21T05:21:27;10.20;99.90
15930;DHT22;8064;51.142;4.780;2023-11-21T05:23:53;10.20;99.90
15930;DHT22;8064;51.142;4.780;2023-11-21T05:26:19;10.20;99.90
15930;DHT22;8064;51.142;4.780;2023-11-21T05:28:44;10.10;99.90
15930;DHT22;8064;51.142;4.780;2023-11-21T05:31:10;10.20;99.90
15930;DHT22;8064;51.142;4.780;2023-11-21T05:33:36;10.10;99.90
15930;DHT22;8064;51.142;4.780;2023-11-21T05:36:03;10.20;99.90
15930;DHT22;8064;51.142;4.780;2023-11-21T05:38:28;10.10;99.90
15930;DHT22;8064;51.142;4.780;2023-11-21T05:40:54;10.20;99.90
15930;DHT22;8064;51.142;4.780;2023-11-21T05:43:20;10.10;99.90
15930;DHT22;8064;51.142;4.780;2023-11-21T05:45:46;10.10;99.90
15930;DHT22;8064;51.142;4.780;2023-11-21T05:48:12;10.20;99.90
15930;DHT22;8064;51.142;4.780;2023-11-21T05:50:37;10.20;99.90
15930;DHT22;8064;51.142;4.780;2023-11-21T05:53:03;10.10;99.90
15930;DHT22;8064;51.142;4.780;2023-11-21T05:55:29;10.20;99.90
15930;DHT22;8064;51.142;4.780;2023-11-21T05:57:55;10.20;99.90
15930;DHT22;8064;51.142;4.780;2023-11-21T06:00:21;10.20;99.90
15930;DHT22;8064;51.142;4.780;2023-11-21T06:02:49;10.20;99.90
15930;DHT22;8064;51.142;4.780;2023-11-21T06:05:18;10.20;99.90
15930;DHT22;8064;51.142;4.780;2023-11-21T06:07:44;10.20;99.90
15930;DHT22;8064;51.142;4.780;2023-11-21T06:10:11;10.20;99.90
15930;DHT22;8064;51.142;4.780;2023-11-21T06:12:38;10.20;99.90
15930;DHT22;8064;51.142;4.780;2023-11-21T06:15:06;10.20;99.90
15930;DHT22;8064;51.142;4.780;2023-11-21T06:17:35;10.30;99.90
15930;DHT22;8064;51.142;4.780;2023-11-21T06:20:04;10.30;99.90
15930;DHT22;8064;51.142;4.780;2023-11-21T06:22:36;10.30;99.90
15930;DHT22;8064;51.142;4.780;2023-11-21T06:25:02;10.30;99.90
15930;DHT22;8064;51.142;4.780;2023-11-21T06:27:30;10.30;99.90
15930;DHT22;8064;51.142;4.780;2023-11-21T06:29:56;10.30;99.90
15930;DHT22;8064;51.142;4.780;2023-11-21T06:32:22;10.40;99.90
15930;DHT22;8064;51.142;4.780;2023-11-21T06:34:48;10.40;99.90
15930;DHT22;8064;51.142;4.780;2023-11-21T06:37:15;10.40;99.90
15930;DHT22;8064;51.142;4.780;2023-11-21T06:39:40;10.40;99.90
15930;DHT22;8064;51.142;4.780;2023-11-21T06:42:07;10.40;99.90
15930;DHT22;8064;51.142;4.780;2023-11-21T06:44:33;10.40;99.90
15930;DHT22;8064;51.142;4.780;2023-11-21T06:47:00;10.40;99.90
15930;DHT22;8064;51.142;4.780;2023-11-21T06:49:26;10.40;99.90
15930;DHT22;8064;51.142;4.780;2023-11-21T06:51:52;10.50;99.90
15930;DHT22;8064;51.142;4.780;2023-11-21T06:54:20;10.50;99.90
15930;DHT22;8064;51.142;4.780;2023-11-21T06:56:47;10.50;99.90
15930;DHT22;8064;51.142;4.780;2023-11-21T06:59:12;10.50;99.90
15930;DHT22;8064;51.142;4.780;2023-11-21T07:01:38;10.50;99.90
15930;DHT22;8064;51.142;4.780;2023-11-21T07:04:05;10.50;99.90
15930;DHT22;8064;51.142;4.780;2023-11-21T07:06:32;10.50;99.90
15930;DHT22;8064;51.142;4.780;2023-11-21T07:08:58;10.50;99.90
15930;DHT22;8064;51.142;4.780;2023-11-21T07:11:24;10.50;99.90
15930;DHT22;8064;51.142;4.780;2023-11-21T07:13:50;10.50;99.90
15930;DHT22;8064;51.142;4.780;2023-11-21T07:16:18;10.50;99.90
15930;DHT22;8064;51.142;4.780;2023-11-21T07:18:44;10.50;99.90
15930;DHT22;8064;51.142;4.780;2023-11-21T07:21:10;10.50;99.90
15930;DHT22;8064;51.142;4.780;2023-11-21T07:23:38;10.50;99.90
15930;DHT22;8064;51.142;4.780;2023-11-21T07:26:04;10.50;99.90
15930;DHT22;8064;51.142;4.780;2023-11-21T07:28:34;10.50;99.90
15930;DHT22;8064;51.142;4.780;2023-11-21T07:31:01;10.50;99.90
15930;DHT22;8064;51.142;4.780;2023-11-21T07:33:27;10.50;99.90
15930;DHT22;8064;51.142;4.780;2023-11-21T07:35:53;10.60;99.90
15930;DHT22;8064;51.142;4.780;2023-11-21T07:38:19;10.60;99.90
15930;DHT22;8064;51.142;4.780;2023-11-21T07:40:44;10.60;99.90
15930;DHT22;8064;51.142;4.780;2023-11-21T07:43:10;10.60;99.90
15930;DHT22;8064;51.142;4.780;2023-11-21T07:45:36;10.60;99.90
15930;DHT22;8064;51.142;4.780;2023-11-21T07:48:02;10.60;99.90
15930;DHT22;8064;51.142;4.780;2023-11-21T07:50:29;10.70;99.90
15930;DHT22;8064;51.142;4.780;2023-11-21T07:52:55;10.70;99.90
15930;DHT22;8064;51.142;4.780;2023-11-21T07:55:21;10.70;99.90
15930;DHT22;8064;51.142;4.780;2023-11-21T07:57:46;10.70;99.90
15930;DHT22;8064;51.142;4.780;2023-11-21T08:00:13;10.70;99.90
15930;DHT22;8064;51.142;4.780;2023-11-21T08:02:40;10.80;99.90
15930;DHT22;8064;51.142;4.780;2023-11-21T08:05:08;10.80;99.90
15930;DHT22;8064;51.142;4.780;2023-11-21T08:07:34;10.80;99.90
15930;DHT22;8064;51.142;4.780;2023-11-21T08:10:00;10.80;99.90
15930;DHT22;8064;51.142;4.780;2023-11-21T08:12:26;10.80;99.90
15930;DHT22;8064;51.142;4.780;2023-11-21T08:14:53;10.80;99.90
15930;DHT22;8064;51.142;4.780;2023-11-21T08:17:19;10.80;99.90
15930;DHT22;8064;51.142;4.780;2023-11-21T08:19:46;10.90;99.90
15930;DHT22;8064;51.142;4.780;2023-11-21T08:22:15;10.90;99.90
15930;DHT22;8064;51.142;4.780;2023-11-21T08:24:43;10.90;99.90
15930;DHT22;8064;51.142;4.780;2023-11-21T08:27:09;10.90;99.90
15930;DHT22;8064;51.142;4.780;2023-11-21T08:29:35;10.90;99.90
15930;DHT22;8064;51.142;4.780;2023-11-21T08:32:02;10.90;99.90
15930;DHT22;8064;51.142;4.780;2023-11-21T08:34:28;11.00;99.90
15930;DHT22;8064;51.142;4.780;2023-11-21T08:36:54;11.00;99.90
15930;DHT22;8064;51.142;4.780;2023-11-21T08:39:21;11.00;99.90
15930;DHT22;8064;51.142;4.780;2023-11-21T08:41:50;11.00;99.90
15930;DHT22;8064;51.142;4.780;2023-11-21T08:44:16;11.10;99.90
15930;DHT22;8064;51.142;4.780;2023-11-21T08:46:44;11.10;99.90
15930;DHT22;8064;51.142;4.780;2023-11-21T08:49:11;11.10;99.90
15930;DHT22;8064;51.142;4.780;2023-11-21T08:51:37;11.10;99.90
15930;DHT22;8064;51.142;4.780;2023-11-21T08:54:04;11.20;99.90
15930;DHT22;8064;51.142;4.780;2023-11-21T08:56:33;11.20;99.90
15930;DHT22;8064;51.142;4.780;2023-11-21T08:58:59;11.20;99.90
15930;DHT22;8064;51.142;4.780;2023-11-21T09:01:28;11.20;99.90
15930;DHT22;8064;51.142;4.780;2023-11-21T09:03:54;11.20;99.90
15930;DHT22;8064;51.142;4.780;2023-11-21T09:06:19;11.30;99.90
15930;DHT22;8064;51.142;4.780;2023-11-21T09:08:45;11.30;99.90
15930;DHT22;8064;51.142;4.780;2023-11-21T09:11:11;11.30;99.90
15930;DHT22;8064;51.142;4.780;2023-11-21T09:13:37;11.40;99.90
15930;DHT22;8064;51.142;4.780;2023-11-21T09:16:03;11.40;99.90
15930;DHT22;8064;51.142;4.780;2023-11-21T09:18:31;11.40;99.90
15930;DHT22;8064;51.142;4.780;2023-11-21T09:20:57;11.40;99.90
15930;DHT22;8064;51.142;4.780;2023-11-21T09:23:24;11.50;99.90
15930;DHT22;8064;51.142;4.780;2023-11-21T09:25:50;11.50;99.90
15930;DHT22;8064;51.142;4.780;2023-11-21T09:28:17;11.50;99.90
15930;DHT22;8064;51.142;4.780;2023-11-21T09:30:43;11.50;99.90
15930;DHT22;8064;51.142;4.780;2023-11-21T09:33:09;11.60;99.90
15930;DHT22;8064;51.142;4.780;2023-11-21T09:35:37;11.60;99.90
15930;DHT22;8064;51.142;4.780;2023-11-21T09:38:04;11.60;99.90
15930;DHT22;8064;51.142;4.780;2023-11-21T09:40:36;11.70;99.90
15930;DHT22;8064;51.142;4.780;2023-11-21T09:43:07;11.70;99.90
15930;DHT22;8064;51.142;4.780;2023-11-21T09:45:35;11.80;99.90
15930;DHT22;8064;51.142;4.780;2023-11-21T09:48:01;11.80;99.90
15930;DHT22;8064;51.142;4.780;2023-11-21T09:50:28;11.80;99.90
15930;DHT22;8064;51.142;4.780;2023-11-21T09:52:57;11.90;99.90
15930;DHT22;8064;51.142;4.780;2023-11-21T09:55:26;11.90;99.90
15930;DHT22;8064;51.142;4.780;2023-11-21T09:57:54;11.90;99.90
15930;DHT22;8064;51.142;4.780;2023-11-21T10:00:22;11.90;99.90
15930;DHT22;8064;51.142;4.780;2023-11-21T10:02:49;11.90;99.90
15930;DHT22;8064;51.142;4.780;2023-11-21T10:05:16;11.90;99.90
15930;DHT22;8064;51.142;4.780;2023-11-21T10:07:43;11.90;99.90
15930;DHT22;8064;51.142;4.780;2023-11-21T10:10:10;11.90;99.90
15930;DHT22;8064;51.142;4.780;2023-11-21T10:12:37;11.90;99.90
15930;DHT22;8064;51.142;4.780;2023-11-21T10:15:07;11.90;99.90
15930;DHT22;8064;51.142;4.780;2023-11-21T10:17:36;11.90;99.90
15930;DHT22;8064;51.142;4.780;2023-11-21T10:20:11;11.90;99.90
15930;DHT22;8064;51.142;4.780;2023-11-21T10:22:39;11.90;99.90
15930;DHT22;8064;51.142;4.780;2023-11-21T10:25:07;11.90;99.90
15930;DHT22;8064;51.142;4.780;2023-11-21T10:27:34;11.90;99.90
15930;DHT22;8064;51.142;4.780;2023-11-21T10:30:03;11.90;99.90
15930;DHT22;8064;51.142;4.780;2023-11-21T10:32:29;11.90;99.90
15930;DHT22;8064;51.142;4.780;2023-11-21T10:35:01;11.90;99.90
15930;DHT22;8064;51.142;4.780;2023-11-21T10:37:32;11.90;99.90
15930;DHT22;8064;51.142;4.780;2023-11-21T10:39:59;11.90;99.90
15930;DHT22;8064;51.142;4.780;2023-11-21T10:42:25;11.90;99.90
15930;DHT22;8064;51.142;4.780;2023-11-21T10:44:55;12.00;99.90
15930;DHT22;8064;51.142;4.780;2023-11-21T10:47:22;12.00;99.90
15930;DHT22;8064;51.142;4.780;2023-11-21T10:49:49;12.10;99.90
15930;DHT22;8064;51.142;4.780;2023-11-21T10:52:16;12.10;99.90
15930;DHT22;8064;51.142;4.780;2023-11-21T10:54:44;12.10;99.90
15930;DHT22;8064;51.142;4.780;2023-11-21T10:57:10;12.20;99.90
15930;DHT22;8064;51.142;4.780;2023-11-21T10:59:40;12.20;99.90
15930;DHT22;8064;51.142;4.780;2023-11-21T11:02:19;12.30;99.90
15930;DHT22;8064;51.142;4.780;2023-11-21T11:04:48;12.40;99.90
15930;DHT22;8064;51.142;4.780;2023-11-21T11:07:14;12.40;99.90
15930;DHT22;8064;51.142;4.780;2023-11-21T11:09:42;12.50;99.90
15930;DHT22;8064;51.142;4.780;2023-11-21T11:12:10;12.50;99.90
15930;DHT22;8064;51.142;4.780;2023-11-21T11:14:36;12.50;99.90
15930;DHT22;8064;51.142;4.780;2023-11-21T11:17:02;12.50;99.90
15930;DHT22;8064;51.142;4.780;2023-11-21T11:19:29;12.50;99.90
15930;DHT22;8064;51.142;4.780;2023-11-21T11:22:03;12.60;99.90
15930;DHT22;8064;51.142;4.780;2023-11-21T11:24:36;12.60;99.90
15930;DHT22;8064;51.142;4.780;2023-11-21T11:38:04;12.70;99.90
15930;DHT22;8064;51.142;4.780;2023-11-21T11:40:41;12.80;99.90
15930;DHT22;8064;51.142;4.780;2023-11-21T11:43:07;12.80;99.90
15930;DHT22;8064;51.142;4.780;2023-11-21T11:45:34;12.80;99.90
15930;DHT22;8064;51.142;4.780;2023-11-21T11:48:03;12.80;99.90
15930;DHT22;8064;51.142;4.780;2023-11-21T11:50:29;12.80;99.90
15930;DHT22;8064;51.142;4.780;2023-11-21T11:52:57;12.80;99.90
15930;DHT22;8064;51.142;4.780;2023-11-21T11:55:37;12.80;99.90
15930;DHT22;8064;51.142;4.780;2023-11-21T11:58:06;12.80;99.90
15930;DHT22;8064;51.142;4.780;2023-11-21T12:00:33;12.80;99.90
15930;DHT22;8064;51.142;4.780;2023-11-21T12:03:03;12.90;99.90
15930;DHT22;8064;51.142;4.780;2023-11-21T12:05:32;12.90;99.90
15930;DHT22;8064;51.142;4.780;2023-11-21T12:08:03;12.90;99.90
15930;DHT22;8064;51.142;4.780;2023-11-21T12:10:32;12.90;99.90
15930;DHT22;8064;51.142;4.780;2023-11-21T12:13:01;12.80;99.90
15930;DHT22;8064;51.142;4.780;2023-11-21T12:15:27;12.80;99.90
15930;DHT22;8064;51.142;4.780;2023-11-21T12:17:59;12.80;99.90
15930;DHT22;8064;51.142;4.780;2023-11-21T12:20:26;12.90;99.90
15930;DHT22;8064;51.142;4.780;2023-11-21T12:22:54;12.90;99.90
15930;DHT22;8064;51.142;4.780;2023-11-21T12:25:25;12.90;99.90
15930;DHT22;8064;51.142;4.780;2023-11-21T12:27:55;13.00;99.90
15930;DHT22;8064;51.142;4.780;2023-11-21T12:30:23;13.10;99.90
15930;DHT22;8064;51.142;4.780;2023-11-21T12:32:50;13.30;99.90
15930;DHT22;8064;51.142;4.780;2023-11-21T12:35:17;13.40;99.90
15930;DHT22;8064;51.142;4.780;2023-11-21T12:37:45;13.40;99.90
15930;DHT22;8064;51.142;4.780;2023-11-21T12:40:13;13.40;99.90
15930;DHT22;8064;51.142;4.780;2023-11-21T12:42:41;13.30;99.90
15930;DHT22;8064;51.142;4.780;2023-11-21T12:47:44;13.30;99.90
15930;DHT22;8064;51.142;4.780;2023-11-21T12:50:11;13.30;99.90
15930;DHT22;8064;51.142;4.780;2023-11-21T12:52:42;13.20;99.90
15930;DHT22;8064;51.142;4.780;2023-11-21T12:55:14;13.20;99.90
15930;DHT22;8064;51.142;4.780;2023-11-21T12:57:42;13.20;99.90
15930;DHT22;8064;51.142;4.780;2023-11-21T13:00:09;13.20;99.90
15930;DHT22;8064;51.142;4.780;2023-11-21T13:02:40;13.20;99.90
15930;DHT22;8064;51.142;4.780;2023-11-21T13:05:08;13.20;99.90
15930;DHT22;8064;51.142;4.780;2023-11-21T13:07:44;13.20;99.90
15930;DHT22;8064;51.142;4.780;2023-11-21T13:10:13;13.20;99.90
15930;DHT22;8064;51.142;4.780;2023-11-21T13:12:46;13.20;99.90
15930;DHT22;8064;51.142;4.780;2023-11-21T13:15:14;13.20;99.90
15930;DHT22;8064;51.142;4.780;2023-11-21T13:17:42;13.30;99.90
15930;DHT22;8064;51.142;4.780;2023-11-21T13:20:10;13.30;99.90
15930;DHT22;8064;51.142;4.780;2023-11-21T13:22:46;13.30;99.90
15930;DHT22;8064;51.142;4.780;2023-11-21T13:25:15;13.30;99.90
15930;DHT22;8064;51.142;4.780;2023-11-21T13:27:45;13.30;99.90
15930;DHT22;8064;51.142;4.780;2023-11-21T13:30:13;13.30;99.90
15930;DHT22;8064;51.142;4.780;2023-11-21T13:32:43;13.30;99.90
15930;DHT22;8064;51.142;4.780;2023-11-21T13:35:09;13.30;99.90
15930;DHT22;8064;51.142;4.780;2023-11-21T13:37:43;13.30;99.90
15930;DHT22;8064;51.142;4.780;2023-11-21T13:40:11;13.20;99.90
15930;DHT22;8064;51.142;4.780;2023-11-21T13:42:41;13.20;99.90
15930;DHT22;8064;51.142;4.780;2023-11-21T13:45:07;13.20;99.90
15930;DHT22;8064;51.142;4.780;2023-11-21T13:47:34;13.10;99.90
15930;DHT22;8064;51.142;4.780;2023-11-21T13:50:01;13.10;99.90
15930;DHT22;8064;51.142;4.780;2023-11-21T13:52:28;13.10;99.90
15930;DHT22;8064;51.142;4.780;2023-11-21T13:54:57;13.00;99.90
15930;DHT22;8064;51.142;4.780;2023-11-21T13:57:23;13.00;99.90
15930;DHT22;8064;51.142;4.780;2023-11-21T13:59:49;13.00;99.90
15930;DHT22;8064;51.142;4.780;2023-11-21T14:02:14;13.00;99.90
15930;DHT22;8064;51.142;4.780;2023-11-21T14:04:43;12.90;99.90
15930;DHT22;8064;51.142;4.780;2023-11-21T14:07:21;12.90;99.90
15930;DHT22;8064;51.142;4.780;2023-11-21T14:10:03;12.90;99.90
15930;DHT22;8064;51.142;4.780;2023-11-21T14:12:29;12.90;99.90
15930;DHT22;8064;51.142;4.780;2023-11-21T14:14:59;12.90;99.90
15930;DHT22;8064;51.142;4.780;2023-11-21T14:17:25;12.90;99.90
15930;DHT22;8064;51.142;4.780;2023-11-21T14:19:53;12.90;99.90
15930;DHT22;8064;51.142;4.780;2023-11-21T14:22:21;12.80;99.90
15930;DHT22;8064;51.142;4.780;2023-11-21T14:24:47;12.80;99.90
15930;DHT22;8064;51.142;4.780;2023-11-21T14:27:13;12.80;99.90
15930;DHT22;8064;51.142;4.780;2023-11-21T14:29:40;12.80;99.90
15930;DHT22;8064;51.142;4.780;2023-11-21T14:32:09;12.80;99.90
15930;DHT22;8064;51.142;4.780;2023-11-21T14:34:35;12.80;99.90
15930;DHT22;8064;51.142;4.780;2023-11-21T14:37:00;12.80;99.90
15930;DHT22;8064;51.142;4.780;2023-11-21T14:39:28;12.80;99.90
15930;DHT22;8064;51.142;4.780;2023-11-21T14:41:55;12.70;99.90
15930;DHT22;8064;51.142;4.780;2023-11-21T14:44:22;12.80;99.90
15930;DHT22;8064;51.142;4.780;2023-11-21T14:46:52;12.70;99.90
15930;DHT22;8064;51.142;4.780;2023-11-21T14:49:20;12.70;99.90
15930;DHT22;8064;51.142;4.780;2023-11-21T14:51:48;12.70;99.90
15930;DHT22;8064;51.142;4.780;2023-11-21T14:54:28;12.70;99.90
15930;DHT22;8064;51.142;4.780;2023-11-21T14:57:09;12.70;99.90
15930;DHT22;8064;51.142;4.780;2023-11-21T14:59:42;12.70;99.90
15930;DHT22;8064;51.142;4.780;2023-11-21T15:02:08;12.70;99.90
15930;DHT22;8064;51.142;4.780;2023-11-21T15:04:42;12.60;99.90
15930;DHT22;8064;51.142;4.780;2023-11-21T15:07:08;12.60;99.90
15930;DHT22;8064;51.142;4.780;2023-11-21T15:09:36;12.60;99.90
15930;DHT22;8064;51.142;4.780;2023-11-21T15:12:07;12.60;99.90
15930;DHT22;8064;51.142;4.780;2023-11-21T15:14:40;12.50;99.90
15930;DHT22;8064;51.142;4.780;2023-11-21T15:17:06;12.50;99.90
15930;DHT22;8064;51.142;4.780;2023-11-21T15:19:33;12.40;99.90
15930;DHT22;8064;51.142;4.780;2023-11-21T15:22:00;12.40;99.90
15930;DHT22;8064;51.142;4.780;2023-11-21T15:24:25;12.40;99.90
15930;DHT22;8064;51.142;4.780;2023-11-21T15:26:51;12.40;99.90
15930;DHT22;8064;51.142;4.780;2023-11-21T15:29:17;12.40;99.90
15930;DHT22;8064;51.142;4.780;2023-11-21T15:31:43;12.30;99.90
15930;DHT22;8064;51.142;4.780;2023-11-21T15:34:14;12.30;99.90
15930;DHT22;8064;51.142;4.780;2023-11-21T15:36:40;12.30;99.90
15930;DHT22;8064;51.142;4.780;2023-11-21T15:39:06;12.30;99.90
15930;DHT22;8064;51.142;4.780;2023-11-21T15:41:37;12.20;99.90
15930;DHT22;8064;51.142;4.780;2023-11-21T15:44:05;12.20;99.90
15930;DHT22;8064;51.142;4.780;2023-11-21T15:46:34;12.20;99.90
15930;DHT22;8064;51.142;4.780;2023-11-21T15:49:00;12.20;99.90
15930;DHT22;8064;51.142;4.780;2023-11-21T15:51:26;12.20;99.90
15930;DHT22;8064;51.142;4.780;2023-11-21T15:53:51;12.20;99.90
15930;DHT22;8064;51.142;4.780;2023-11-21T15:56:17;12.20;99.90
15930;DHT22;8064;51.142;4.780;2023-11-21T15:58:43;12.10;99.90
15930;DHT22;8064;51.142;4.780;2023-11-21T16:01:09;12.10;99.90
15930;DHT22;8064;51.142;4.780;2023-11-21T16:03:37;12.10;99.90